sensor_id;sensor_type;location;lat;lon;timestamp;pressure;altitude;pressure_sealevel;temperature;humidity
35806;BME280;21925;44.608;11.580;2023-01-29T00:00:28;102401.53;;;5.49;91.35
35806;BME280;21925;44.608;11.580;2023-01-29T00:05:43;102348.25;;;5.33;87.48
35806;BME280;21925;44.608;11.580;2023-01-29T00:08:09;102372.72;;;5.48;86.18
35806;BME280;21925;44.608;11.580;2023-01-29T00:10:35;102362.66;;;5.43;85.32
35806;BME280;21925;44.608;11.580;2023-01-29T00:13:01;102358.84;;;5.39;85.19
35806;BME280;21925;44.608;11.580;2023-01-29T00:15:27;102429.81;;;5.62;85.24
35806;BME280;21925;44.608;11.580;2023-01-29T00:17:53;102417.31;;;5.22;87.53
35806;BME280;21925;44.608;11.580;2023-01-29T00:20:20;102388.47;;;5.01;89.79
35806;BME280;21925;44.608;11.580;2023-01-29T00:25:28;102372.72;;;4.98;89.12
35806;BME280;21925;44.608;11.580;2023-01-29T00:27:59;102450.50;;;5.49;88.83
35806;BME280;21925;44.608;11.580;2023-01-29T00:30:28;102453.75;;;5.36;88.67
35806;BME280;21925;44.608;11.580;2023-01-29T00:33:05;102398.25;;;4.82;90.81
35806;BME280;21925;44.608;11.580;2023-01-29T00:35:48;102364.72;;;4.37;92.60
35806;BME280;21925;44.608;11.580;2023-01-29T00:38:36;102452.66;;;5.27;92.16
35806;BME280;21925;44.608;11.580;2023-01-29T00:41:10;102459.19;;;5.26;91.92
35806;BME280;21925;44.608;11.580;2023-01-29T00:43:56;102427.09;;;5.08;91.18
35806;BME280;21925;44.608;11.580;2023-01-29T00:46:40;102428.19;;;5.07;91.73
35806;BME280;21925;44.608;11.580;2023-01-29T00:49:10;102457.03;;;5.43;89.88
35806;BME280;21925;44.608;11.580;2023-01-29T00:51:38;102426.53;;;5.11;88.91
35806;BME280;21925;44.608;11.580;2023-01-29T00:54:05;102413.47;;;4.88;90.00
35806;BME280;21925;44.608;11.580;2023-01-29T00:56:36;102468.44;;;5.20;90.05
35806;BME280;21925;44.608;11.580;2023-01-29T00:59:02;102448.94;;;4.52;92.55
35806;BME280;21925;44.608;11.580;2023-01-29T01:01:33;102463.47;;;4.82;93.87
35806;BME280;21925;44.608;11.580;2023-01-29T01:04:26;102470.00;;;5.01;92.53
35806;BME280;21925;44.608;11.580;2023-01-29T01:07:03;102478.50;;;5.39;90.47
35806;BME280;21925;44.608;11.580;2023-01-29T01:09:29;102477.13;;;5.12;89.99
35806;BME280;21925;44.608;11.580;2023-01-29T01:12:13;102454.19;;;4.68;91.86
35806;BME280;21925;44.608;11.580;2023-01-29T01:14:42;102469.41;;;4.74;92.25
35806;BME280;21925;44.608;11.580;2023-01-29T01:17:09;102476.50;;;4.75;92.82
35806;BME280;21925;44.608;11.580;2023-01-29T01:19:39;102472.69;;;4.76;93.07
35806;BME280;21925;44.608;11.580;2023-01-29T01:22:05;102477.47;;;4.54;93.89
35806;BME280;21925;44.608;11.580;2023-01-29T01:24:31;102479.56;;;4.37;94.65
35806;BME280;21925;44.608;11.580;2023-01-29T01:26:57;102471.28;;;4.12;96.75
35806;BME280;21925;44.608;11.580;2023-01-29T01:29:23;102456.56;;;3.98;96.68
35806;BME280;21925;44.608;11.580;2023-01-29T01:31:53;102479.59;;;3.91;97.85
35806;BME280;21925;44.608;11.580;2023-01-29T01:34:19;102493.41;;;3.90;99.42
35806;BME280;21925;44.608;11.580;2023-01-29T01:36:52;102498.91;;;3.99;99.83
35806;BME280;21925;44.608;11.580;2023-01-29T01:39:21;102499.47;;;4.01;99.87
35806;BME280;21925;44.608;11.580;2023-01-29T01:41:48;102489.84;;;4.30;98.33
35806;BME280;21925;44.608;11.580;2023-01-29T01:47:41;102489.00;;;4.76;93.31
35806;BME280;21925;44.608;11.580;2023-01-29T01:50:12;102476.34;;;4.45;92.85
35806;BME280;21925;44.608;11.580;2023-01-29T01:52:47;102496.34;;;4.29;94.64
35806;BME280;21925;44.608;11.580;2023-01-29T01:55:15;102446.97;;;3.81;95.90
35806;BME280;21925;44.608;11.580;2023-01-29T01:57:43;102494.31;;;4.05;97.03
35806;BME280;21925;44.608;11.580;2023-01-29T02:00:14;102506.22;;;4.40;96.93
35806;BME280;21925;44.608;11.580;2023-01-29T02:02:47;102503.22;;;4.42;94.94
35806;BME280;21925;44.608;11.580;2023-01-29T02:05:33;102498.78;;;4.26;94.74
35806;BME280;21925;44.608;11.580;2023-01-29T02:08:40;102496.63;;;4.28;95.57
35806;BME280;21925;44.608;11.580;2023-01-29T02:11:31;102487.78;;;4.47;94.76
35806;BME280;21925;44.608;11.580;2023-01-29T02:13:57;102505.13;;;4.41;93.76
35806;BME280;21925;44.608;11.580;2023-01-29T02:16:25;102443.91;;;3.73;96.08
35806;BME280;21925;44.608;11.580;2023-01-29T02:18:53;102471.94;;;3.83;97.59
35806;BME280;21925;44.608;11.580;2023-01-29T02:21:37;102503.56;;;3.73;99.43
35806;BME280;21925;44.608;11.580;2023-01-29T02:24:30;102504.63;;;3.67;100.00
35806;BME280;21925;44.608;11.580;2023-01-29T02:27:13;102507.94;;;3.74;100.00
35806;BME280;21925;44.608;11.580;2023-01-29T02:30:02;102505.75;;;3.71;100.00
35806;BME280;21925;44.608;11.580;2023-01-29T02:32:30;102510.03;;;3.67;100.00
35806;BME280;21925;44.608;11.580;2023-01-29T02:35:07;102512.25;;;3.70;100.00
35806;BME280;21925;44.608;11.580;2023-01-29T02:38:01;102509.66;;;3.85;100.00
35806;BME280;21925;44.608;11.580;2023-01-29T02:40:44;102501.81;;;3.88;99.83
35806;BME280;21925;44.608;11.580;2023-01-29T02:43:50;102507.34;;;4.08;99.66
35806;BME280;21925;44.608;11.580;2023-01-29T02:49:15;102516.22;;;3.93;98.78
35806;BME280;21925;44.608;11.580;2023-01-29T02:52:08;102511.03;;;3.92;98.01
35806;BME280;21925;44.608;11.580;2023-01-29T02:54:59;102509.09;;;3.83;98.39
35806;BME280;21925;44.608;11.580;2023-01-29T02:57:33;102505.88;;;3.54;99.59
35806;BME280;21925;44.608;11.580;2023-01-29T03:00:27;102515.91;;;3.54;99.88
35806;BME280;21925;44.608;11.580;2023-01-29T03:03:15;102521.63;;;3.57;100.00
35806;BME280;21925;44.608;11.580;2023-01-29T03:05:57;102524.75;;;3.18;100.00
35806;BME280;21925;44.608;11.580;2023-01-29T03:08:51;102524.31;;;3.26;100.00
35806;BME280;21925;44.608;11.580;2023-01-29T03:11:19;102523.19;;;3.22;100.00
35806;BME280;21925;44.608;11.580;2023-01-29T03:14:10;102534.13;;;3.32;100.00
35806;BME280;21925;44.608;11.580;2023-01-29T03:16:53;102529.84;;;3.10;100.00
35806;BME280;21925;44.608;11.580;2023-01-29T03:19:37;102530.16;;;3.13;100.00
35806;BME280;21925;44.608;11.580;2023-01-29T03:22:14;102535.69;;;3.23;100.00
35806;BME280;21925;44.608;11.580;2023-01-29T03:27:43;102531.66;;;3.04;100.00
35806;BME280;21925;44.608;11.580;2023-01-29T03:30:40;102516.91;;;3.48;100.00
35806;BME280;21925;44.608;11.580;2023-01-29T03:33:44;102524.59;;;3.29;100.00
35806;BME280;21925;44.608;11.580;2023-01-29T03:36:32;102544.56;;;3.45;100.00
35806;BME280;21925;44.608;11.580;2023-01-29T03:39:06;102539.75;;;3.52;100.00
35806;BME280;21925;44.608;11.580;2023-01-29T03:42:01;102542.50;;;3.57;100.00
35806;BME280;21925;44.608;11.580;2023-01-29T03:50:18;102487.88;;;3.80;96.07
35806;BME280;21925;44.608;11.580;2023-01-29T03:52:50;102507.53;;;3.92;95.23
35806;BME280;21925;44.608;11.580;2023-01-29T03:55:58;102538.81;;;3.68;94.80
35806;BME280;21925;44.608;11.580;2023-01-29T03:58:56;102531.81;;;3.19;99.28
35806;BME280;21925;44.608;11.580;2023-01-29T04:01:47;102539.38;;;3.70;98.65
35806;BME280;21925;44.608;11.580;2023-01-29T04:04:29;102541.25;;;4.00;96.12
35806;BME280;21925;44.608;11.580;2023-01-29T04:07:23;102540.38;;;3.95;94.24
35806;BME280;21925;44.608;11.580;2023-01-29T04:10:02;102548.25;;;3.34;95.93
35806;BME280;21925;44.608;11.580;2023-01-29T04:12:49;102551.72;;;3.29;98.76
35806;BME280;21925;44.608;11.580;2023-01-29T04:15:18;102539.66;;;2.94;100.00
35806;BME280;21925;44.608;11.580;2023-01-29T04:17:51;102512.28;;;3.17;100.00
35806;BME280;21925;44.608;11.580;2023-01-29T04:20:29;102544.56;;;3.45;100.00
35806;BME280;21925;44.608;11.580;2023-01-29T04:22:55;102536.06;;;3.63;99.30
35806;BME280;21925;44.608;11.580;2023-01-29T04:25:25;102524.94;;;3.95;96.84
35806;BME280;21925;44.608;11.580;2023-01-29T04:28:06;102534.78;;;4.06;93.82
35806;BME280;21925;44.608;11.580;2023-01-29T04:41:49;102553.22;;;2.94;100.00
35806;BME280;21925;44.608;11.580;2023-01-29T04:44:22;102553.72;;;2.91;100.00
35806;BME280;21925;44.608;11.580;2023-01-29T04:48:06;102512.72;;;2.61;100.00
35806;BME280;21925;44.608;11.580;2023-01-29T04:50:23;102555.03;;;2.89;100.00
35806;BME280;21925;44.608;11.580;2023-01-29T04:53:14;102544.81;;;2.96;100.00
35806;BME280;21925;44.608;11.580;2023-01-29T04:55:54;102556.84;;;3.05;100.00
35806;BME280;21925;44.608;11.580;2023-01-29T04:58:48;102529.41;;;2.96;100.00
35806;BME280;21925;44.608;11.580;2023-01-29T05:01:17;102546.69;;;2.90;100.00
35806;BME280;21925;44.608;11.580;2023-01-29T05:03:48;102540.44;;;2.68;100.00
35806;BME280;21925;44.608;11.580;2023-01-29T05:06:15;102555.47;;;2.59;100.00
35806;BME280;21925;44.608;11.580;2023-01-29T05:09:04;102562.38;;;2.50;100.00
35806;BME280;21925;44.608;11.580;2023-01-29T05:11:31;102573.34;;;2.60;100.00
35806;BME280;21925;44.608;11.580;2023-01-29T05:13:58;102500.25;;;2.39;100.00
35806;BME280;21925;44.608;11.580;2023-01-29T05:16:37;102544.78;;;2.69;100.00
35806;BME280;21925;44.608;11.580;2023-01-29T05:19:12;102559.00;;;2.60;100.00
35806;BME280;21925;44.608;11.580;2023-01-29T05:21:42;102561.69;;;2.38;100.00
35806;BME280;21925;44.608;11.580;2023-01-29T05:24:14;102562.63;;;2.65;100.00
35806;BME280;21925;44.608;11.580;2023-01-29T05:26:52;102548.63;;;2.52;100.00
35806;BME280;21925;44.608;11.580;2023-01-29T05:29:42;102575.91;;;2.67;100.00
35806;BME280;21925;44.608;11.580;2023-01-29T05:32:13;102570.66;;;2.60;100.00
35806;BME280;21925;44.608;11.580;2023-01-29T05:34:41;102580.56;;;2.71;100.00
35806;BME280;21925;44.608;11.580;2023-01-29T05:37:10;102579.03;;;2.59;100.00
35806;BME280;21925;44.608;11.580;2023-01-29T05:39:37;102531.53;;;2.51;100.00
35806;BME280;21925;44.608;11.580;2023-01-29T05:42:03;102516.06;;;2.26;100.00
35806;BME280;21925;44.608;11.580;2023-01-29T05:44:32;102583.91;;;2.40;100.00
35806;BME280;21925;44.608;11.580;2023-01-29T05:47:05;102571.16;;;2.20;100.00
35806;BME280;21925;44.608;11.580;2023-01-29T05:49:34;102595.06;;;2.44;100.00
35806;BME280;21925;44.608;11.580;2023-01-29T05:52:00;102586.00;;;2.55;100.00
35806;BME280;21925;44.608;11.580;2023-01-29T05:54:26;102601.75;;;2.58;100.00
35806;BME280;21925;44.608;11.580;2023-01-29T05:56:58;102576.97;;;2.12;100.00
35806;BME280;21925;44.608;11.580;2023-01-29T05:59:24;102606.69;;;2.61;100.00
35806;BME280;21925;44.608;11.580;2023-01-29T06:01:50;102564.66;;;2.37;100.00
35806;BME280;21925;44.608;11.580;2023-01-29T06:04:16;102608.66;;;2.49;100.00
35806;BME280;21925;44.608;11.580;2023-01-29T06:06:42;102612.22;;;2.33;100.00
35806;BME280;21925;44.608;11.580;2023-01-29T06:09:09;102620.13;;;2.72;100.00
35806;BME280;21925;44.608;11.580;2023-01-29T06:11:35;102611.53;;;2.42;100.00
35806;BME280;21925;44.608;11.580;2023-01-29T06:14:02;102609.84;;;2.36;100.00
35806;BME280;21925;44.608;11.580;2023-01-29T06:16:29;102621.19;;;2.34;100.00
35806;BME280;21925;44.608;11.580;2023-01-29T06:18:58;102626.28;;;2.51;100.00
35806;BME280;21925;44.608;11.580;2023-01-29T06:21:26;102530.84;;;2.02;100.00
35806;BME280;21925;44.608;11.580;2023-01-29T06:23:52;102596.31;;;2.74;100.00
35806;BME280;21925;44.608;11.580;2023-01-29T06:26:19;102565.94;;;2.72;98.58
35806;BME280;21925;44.608;11.580;2023-01-29T06:28:48;102586.94;;;3.03;96.42
35806;BME280;21925;44.608;11.580;2023-01-29T06:31:14;102635.25;;;2.90;97.23
35806;BME280;21925;44.608;11.580;2023-01-29T06:33:43;102622.88;;;2.77;98.30
35806;BME280;21925;44.608;11.580;2023-01-29T06:36:08;102622.53;;;2.52;98.87
35806;BME280;21925;44.608;11.580;2023-01-29T06:38:36;102621.56;;;2.80;99.21
35806;BME280;21925;44.608;11.580;2023-01-29T06:41:14;102639.44;;;2.97;98.85
35806;BME280;21925;44.608;11.580;2023-01-29T06:43:43;102617.41;;;2.72;99.58
35806;BME280;21925;44.608;11.580;2023-01-29T06:46:13;102641.06;;;2.98;100.00
35806;BME280;21925;44.608;11.580;2023-01-29T06:48:39;102632.22;;;2.86;98.58
35806;BME280;21925;44.608;11.580;2023-01-29T06:51:09;102644.00;;;2.97;98.12
35806;BME280;21925;44.608;11.580;2023-01-29T06:53:40;102586.75;;;2.88;97.13
35806;BME280;21925;44.608;11.580;2023-01-29T06:56:06;102653.94;;;2.91;98.39
35806;BME280;21925;44.608;11.580;2023-01-29T06:58:36;102648.00;;;2.73;100.00
35806;BME280;21925;44.608;11.580;2023-01-29T07:01:10;102666.81;;;2.63;100.00
35806;BME280;21925;44.608;11.580;2023-01-29T07:03:36;102664.69;;;2.65;100.00
35806;BME280;21925;44.608;11.580;2023-01-29T07:06:03;102633.47;;;2.41;100.00
35806;BME280;21925;44.608;11.580;2023-01-29T07:08:29;102655.91;;;2.58;100.00
35806;BME280;21925;44.608;11.580;2023-01-29T07:10:59;102666.44;;;2.54;100.00
35806;BME280;21925;44.608;11.580;2023-01-29T07:13:25;102664.78;;;2.70;100.00
35806;BME280;21925;44.608;11.580;2023-01-29T07:15:51;102669.44;;;2.74;100.00
35806;BME280;21925;44.608;11.580;2023-01-29T07:18:19;102663.88;;;2.64;100.00
35806;BME280;21925;44.608;11.580;2023-01-29T07:20:49;102669.47;;;2.58;100.00
35806;BME280;21925;44.608;11.580;2023-01-29T07:23:15;102660.53;;;2.57;100.00
35806;BME280;21925;44.608;11.580;2023-01-29T07:25:43;102667.72;;;2.68;100.00
35806;BME280;21925;44.608;11.580;2023-01-29T07:28:18;102672.00;;;2.64;100.00
35806;BME280;21925;44.608;11.580;2023-01-29T07:30:45;102651.66;;;2.62;100.00
35806;BME280;21925;44.608;11.580;2023-01-29T07:33:11;102685.91;;;2.89;100.00
35806;BME280;21925;44.608;11.580;2023-01-29T07:35:40;102672.69;;;2.76;100.00
35806;BME280;21925;44.608;11.580;2023-01-29T07:38:08;102692.47;;;2.93;100.00
35806;BME280;21925;44.608;11.580;2023-01-29T07:40:37;102629.75;;;2.63;100.00
35806;BME280;21925;44.608;11.580;2023-01-29T07:43:05;102689.50;;;3.16;100.00
35806;BME280;21925;44.608;11.580;2023-01-29T07:45:36;102695.34;;;3.24;100.00
35806;BME280;21925;44.608;11.580;2023-01-29T07:48:09;102650.81;;;2.99;100.00
35806;BME280;21925;44.608;11.580;2023-01-29T07:50:40;102698.69;;;3.31;100.00
35806;BME280;21925;44.608;11.580;2023-01-29T07:53:16;102668.38;;;2.97;100.00
35806;BME280;21925;44.608;11.580;2023-01-29T07:55:43;102637.78;;;2.96;100.00
35806;BME280;21925;44.608;11.580;2023-01-29T07:58:10;102707.16;;;3.61;100.00
35806;BME280;21925;44.608;11.580;2023-01-29T08:00:36;102703.56;;;3.56;100.00
35806;BME280;21925;44.608;11.580;2023-01-29T08:03:04;102653.22;;;3.38;100.00
35806;BME280;21925;44.608;11.580;2023-01-29T08:05:31;102667.94;;;3.69;100.00
35806;BME280;21925;44.608;11.580;2023-01-29T08:07:59;102688.16;;;3.83;100.00
35806;BME280;21925;44.608;11.580;2023-01-29T08:10:26;102694.50;;;3.93;100.00
35806;BME280;21925;44.608;11.580;2023-01-29T08:13:00;102722.16;;;4.16;100.00
35806;BME280;21925;44.608;11.580;2023-01-29T08:15:27;102732.28;;;3.99;100.00
35806;BME280;21925;44.608;11.580;2023-01-29T08:17:54;102731.19;;;4.22;100.00
35806;BME280;21925;44.608;11.580;2023-01-29T08:20:22;102725.41;;;4.45;100.00
35806;BME280;21925;44.608;11.580;2023-01-29T08:22:49;102717.22;;;4.40;100.00
35806;BME280;21925;44.608;11.580;2023-01-29T08:25:23;102725.50;;;4.55;100.00
35806;BME280;21925;44.608;11.580;2023-01-29T08:27:48;102738.66;;;4.72;100.00
35806;BME280;21925;44.608;11.580;2023-01-29T08:30:14;102742.69;;;4.65;100.00
35806;BME280;21925;44.608;11.580;2023-01-29T08:32:46;102732.09;;;4.64;100.00
35806;BME280;21925;44.608;11.580;2023-01-29T08:35:15;102729.22;;;4.80;100.00
35806;BME280;21925;44.608;11.580;2023-01-29T08:37:53;102752.06;;;5.20;100.00
35806;BME280;21925;44.608;11.580;2023-01-29T08:40:23;102754.88;;;5.35;100.00
35806;BME280;21925;44.608;11.580;2023-01-29T08:42:50;102756.78;;;5.40;100.00
35806;BME280;21925;44.608;11.580;2023-01-29T08:45:16;102757.16;;;5.58;100.00
35806;BME280;21925;44.608;11.580;2023-01-29T08:47:49;102771.81;;;5.52;100.00
35806;BME280;21925;44.608;11.580;2023-01-29T08:50:20;102769.41;;;5.60;100.00
35806;BME280;21925;44.608;11.580;2023-01-29T08:52:48;102774.28;;;5.58;99.39
35806;BME280;21925;44.608;11.580;2023-01-29T08:55:14;102752.78;;;5.57;99.55
35806;BME280;21925;44.608;11.580;2023-01-29T08:57:43;102758.56;;;5.70;98.88
35806;BME280;21925;44.608;11.580;2023-01-29T09:00:12;102767.66;;;5.96;98.83
35806;BME280;21925;44.608;11.580;2023-01-29T09:02:42;102769.81;;;5.89;98.17
35806;BME280;21925;44.608;11.580;2023-01-29T09:05:08;102767.00;;;5.69;97.20
35806;BME280;21925;44.608;11.580;2023-01-29T09:07:34;102782.63;;;5.98;97.54
35806;BME280;21925;44.608;11.580;2023-01-29T09:10:03;102776.19;;;6.19;96.66
35806;BME280;21925;44.608;11.580;2023-01-29T09:12:30;102772.31;;;5.95;96.85
35806;BME280;21925;44.608;11.580;2023-01-29T09:15:06;102686.13;;;5.59;96.89
35806;BME280;21925;44.608;11.580;2023-01-29T09:17:35;102723.81;;;5.92;96.76
35806;BME280;21925;44.608;11.580;2023-01-29T09:20:01;102765.84;;;6.41;97.27
35806;BME280;21925;44.608;11.580;2023-01-29T09:22:29;102768.59;;;6.46;95.07
35806;BME280;21925;44.608;11.580;2023-01-29T09:25:03;102732.84;;;6.08;96.35
35806;BME280;21925;44.608;11.580;2023-01-29T09:27:35;102666.88;;;5.76;95.19
35806;BME280;21925;44.608;11.580;2023-01-29T09:30:08;102787.41;;;6.47;95.06
35806;BME280;21925;44.608;11.580;2023-01-29T09:32:38;102697.44;;;6.08;95.29
35806;BME280;21925;44.608;11.580;2023-01-29T09:35:12;102772.44;;;6.85;94.59
35806;BME280;21925;44.608;11.580;2023-01-29T09:37:41;102763.41;;;6.84;93.96
35806;BME280;21925;44.608;11.580;2023-01-29T09:40:28;102697.16;;;5.99;92.61
35806;BME280;21925;44.608;11.580;2023-01-29T09:43:41;102708.38;;;6.72;93.59
35806;BME280;21925;44.608;11.580;2023-01-29T09:46:31;102671.28;;;6.66;93.26
35806;BME280;21925;44.608;11.580;2023-01-29T09:52:25;102766.91;;;7.19;92.54
35806;BME280;21925;44.608;11.580;2023-01-29T09:57:54;102744.44;;;7.52;92.17
35806;BME280;21925;44.608;11.580;2023-01-29T10:15:37;102686.53;;;7.60;86.38
35806;BME280;21925;44.608;11.580;2023-01-29T10:18:38;102736.88;;;8.41;88.17
35806;BME280;21925;44.608;11.580;2023-01-29T10:21:27;102687.00;;;8.20;88.12
35806;BME280;21925;44.608;11.580;2023-01-29T10:26:41;102658.53;;;8.31;86.61
35806;BME280;21925;44.608;11.580;2023-01-29T10:29:15;102681.22;;;8.32;85.60
35806;BME280;21925;44.608;11.580;2023-01-29T10:31:55;102657.41;;;8.32;87.09
35806;BME280;21925;44.608;11.580;2023-01-29T10:34:38;102744.81;;;9.04;86.79
35806;BME280;21925;44.608;11.580;2023-01-29T10:37:19;102671.25;;;8.46;82.93
35806;BME280;21925;44.608;11.580;2023-01-29T10:39:49;102705.41;;;9.93;78.83
35806;BME280;21925;44.608;11.580;2023-01-29T10:42:33;102669.00;;;9.51;77.69
35806;BME280;21925;44.608;11.580;2023-01-29T10:45:30;102727.06;;;9.71;78.79
35806;BME280;21925;44.608;11.580;2023-01-29T10:48:24;102711.63;;;9.57;80.83
35806;BME280;21925;44.608;11.580;2023-01-29T10:54:08;102711.19;;;9.50;81.70
35806;BME280;21925;44.608;11.580;2023-01-29T10:57:00;102635.41;;;9.22;82.21
35806;BME280;21925;44.608;11.580;2023-01-29T11:00:01;102705.91;;;9.77;82.25
35806;BME280;21925;44.608;11.580;2023-01-29T11:02:35;102693.75;;;9.41;83.69
35806;BME280;21925;44.608;11.580;2023-01-29T11:05:16;102709.47;;;9.54;83.81
35806;BME280;21925;44.608;11.580;2023-01-29T11:08:11;102607.66;;;9.10;83.23
35806;BME280;21925;44.608;11.580;2023-01-29T11:13:30;102610.13;;;9.30;84.63
35806;BME280;21925;44.608;11.580;2023-01-29T11:16:04;102676.47;;;10.06;83.67
35806;BME280;21925;44.608;11.580;2023-01-29T11:21:26;102673.31;;;9.94;83.32
35806;BME280;21925;44.608;11.580;2023-01-29T11:24:15;102662.88;;;10.32;82.89
35806;BME280;21925;44.608;11.580;2023-01-29T11:26:48;102620.28;;;10.22;80.81
35806;BME280;21925;44.608;11.580;2023-01-29T11:29:43;102659.78;;;10.21;81.15
35806;BME280;21925;44.608;11.580;2023-01-29T11:32:24;102614.38;;;10.15;82.17
35806;BME280;21925;44.608;11.580;2023-01-29T11:37:47;102573.34;;;9.91;79.66
35806;BME280;21925;44.608;11.580;2023-01-29T11:40:31;102639.69;;;10.57;79.33
35806;BME280;21925;44.608;11.580;2023-01-29T11:43:28;102630.97;;;10.68;79.13
35806;BME280;21925;44.608;11.580;2023-01-29T11:46:06;102596.88;;;10.29;79.74
35806;BME280;21925;44.608;11.580;2023-01-29T11:48:43;102626.66;;;10.49;78.23
35806;BME280;21925;44.608;11.580;2023-01-29T11:51:27;102547.63;;;10.37;78.18
35806;BME280;21925;44.608;11.580;2023-01-29T11:54:26;102569.97;;;10.44;78.17
35806;BME280;21925;44.608;11.580;2023-01-29T11:57:36;102604.78;;;11.03;79.35
35806;BME280;21925;44.608;11.580;2023-01-29T12:00:26;102572.53;;;10.54;77.06
35806;BME280;21925;44.608;11.580;2023-01-29T12:03:06;102596.66;;;11.11;78.37
35806;BME280;21925;44.608;11.580;2023-01-29T12:06:40;102519.59;;;10.67;77.98
35806;BME280;21925;44.608;11.580;2023-01-29T12:09:00;102509.22;;;11.05;78.06
35806;BME280;21925;44.608;11.580;2023-01-29T12:11:57;102587.09;;;11.22;76.15
35806;BME280;21925;44.608;11.580;2023-01-29T12:15:18;102527.63;;;11.04;76.85
35806;BME280;21925;44.608;11.580;2023-01-29T12:18:24;102514.13;;;10.94;76.35
35806;BME280;21925;44.608;11.580;2023-01-29T12:21:09;102544.53;;;11.33;76.04
35806;BME280;21925;44.608;11.580;2023-01-29T12:23:56;102506.59;;;11.00;75.57
35806;BME280;21925;44.608;11.580;2023-01-29T12:26:40;102504.63;;;11.13;71.53
35806;BME280;21925;44.608;11.580;2023-01-29T12:32:01;102565.41;;;11.34;72.66
35806;BME280;21925;44.608;11.580;2023-01-29T12:34:53;102556.81;;;11.62;75.86
35806;BME280;21925;44.608;11.580;2023-01-29T12:40:18;102536.41;;;11.55;73.66
35806;BME280;21925;44.608;11.580;2023-01-29T12:42:52;102553.00;;;11.72;72.80
35806;BME280;21925;44.608;11.580;2023-01-29T12:45:23;102467.41;;;11.21;71.43
35806;BME280;21925;44.608;11.580;2023-01-29T12:48:07;102511.31;;;12.00;72.42
35806;BME280;21925;44.608;11.580;2023-01-29T12:50:42;102542.13;;;11.89;70.53
35806;BME280;21925;44.608;11.580;2023-01-29T12:53:29;102463.25;;;11.67;71.18
35806;BME280;21925;44.608;11.580;2023-01-29T12:56:11;102531.41;;;12.00;68.17
35806;BME280;21925;44.608;11.580;2023-01-29T12:58:44;102510.78;;;11.90;66.56
35806;BME280;21925;44.608;11.580;2023-01-29T13:04:41;102530.84;;;12.42;67.50
35806;BME280;21925;44.608;11.580;2023-01-29T13:07:27;102493.56;;;12.36;64.79
35806;BME280;21925;44.608;11.580;2023-01-29T13:10:03;102487.25;;;11.97;66.12
35806;BME280;21925;44.608;11.580;2023-01-29T13:12:33;102521.03;;;12.97;70.92
35806;BME280;21925;44.608;11.580;2023-01-29T13:15:15;102481.44;;;12.29;64.63
35806;BME280;21925;44.608;11.580;2023-01-29T13:17:53;102516.88;;;13.75;76.66
35806;BME280;21925;44.608;11.580;2023-01-29T13:20:31;102472.91;;;13.96;73.08
35806;BME280;21925;44.608;11.580;2023-01-29T13:23:50;102511.47;;;12.94;63.25
35806;BME280;21925;44.608;11.580;2023-01-29T13:26:19;102453.03;;;13.23;67.03
35806;BME280;21925;44.608;11.580;2023-01-29T13:28:57;102521.44;;;13.71;71.93
35806;BME280;21925;44.608;11.580;2023-01-29T13:31:38;102491.41;;;13.02;63.68
35806;BME280;21925;44.608;11.580;2023-01-29T13:34:45;102452.69;;;13.50;73.13
35806;BME280;21925;44.608;11.580;2023-01-29T13:37:48;102513.66;;;13.23;63.87
35806;BME280;21925;44.608;11.580;2023-01-29T13:40:35;102516.72;;;13.55;65.64
35806;BME280;21925;44.608;11.580;2023-01-29T13:43:25;102521.44;;;13.38;65.89
35806;BME280;21925;44.608;11.580;2023-01-29T13:46:12;102459.59;;;12.02;63.87
35806;BME280;21925;44.608;11.580;2023-01-29T13:48:51;102497.75;;;12.03;65.41
35806;BME280;21925;44.608;11.580;2023-01-29T13:51:22;102524.16;;;12.65;66.05
35806;BME280;21925;44.608;11.580;2023-01-29T13:54:05;102487.88;;;12.24;64.20
35806;BME280;21925;44.608;11.580;2023-01-29T13:56:55;102532.78;;;12.11;66.82
35806;BME280;21925;44.608;11.580;2023-01-29T13:59:50;102537.50;;;12.50;70.25
35806;BME280;21925;44.608;11.580;2023-01-29T14:02:25;102531.88;;;12.55;66.55
35806;BME280;21925;44.608;11.580;2023-01-29T14:10:44;102455.78;;;13.06;64.56
35806;BME280;21925;44.608;11.580;2023-01-29T14:13:28;102521.44;;;13.54;63.86
35806;BME280;21925;44.608;11.580;2023-01-29T14:18:53;102513.41;;;12.25;60.71
35806;BME280;21925;44.608;11.580;2023-01-29T14:21:30;102526.63;;;12.83;63.75
35806;BME280;21925;44.608;11.580;2023-01-29T14:24:07;102532.44;;;13.21;63.40
35806;BME280;21925;44.608;11.580;2023-01-29T14:26:48;102459.19;;;13.20;66.38
35806;BME280;21925;44.608;11.580;2023-01-29T14:29:27;102518.69;;;12.82;61.42
35806;BME280;21925;44.608;11.580;2023-01-29T14:32:21;102470.91;;;12.78;63.12
35806;BME280;21925;44.608;11.580;2023-01-29T14:37:57;102465.53;;;12.65;67.12
35806;BME280;21925;44.608;11.580;2023-01-29T14:40:30;102448.06;;;11.92;62.30
35806;BME280;21925;44.608;11.580;2023-01-29T14:43:06;102515.06;;;12.65;64.10
35806;BME280;21925;44.608;11.580;2023-01-29T14:45:40;102468.94;;;12.62;63.67
35806;BME280;21925;44.608;11.580;2023-01-29T14:50:50;102482.03;;;13.29;68.98
35806;BME280;21925;44.608;11.580;2023-01-29T14:56:25;102506.84;;;13.62;68.63
35806;BME280;21925;44.608;11.580;2023-01-29T14:59:18;102497.22;;;12.92;60.54
35806;BME280;21925;44.608;11.580;2023-01-29T15:01:58;102419.31;;;13.09;64.67
35806;BME280;21925;44.608;11.580;2023-01-29T15:07:41;102506.84;;;13.62;63.89